createdAt,value
2023-03-26T00:03:56.949Z,43.68
2023-03-26T00:09:00.670Z,43.72
2023-03-26T00:14:04.350Z,45.11
2023-03-26T00:19:09.790Z,45.50
2023-03-26T00:24:15.830Z,45.10
2023-03-26T00:29:19.444Z,45.46
2023-03-26T00:34:24.786Z,45.59
2023-03-26T00:39:28.670Z,44.52
2023-03-26T00:44:32.414Z,45.28
2023-03-26T00:49:37.776Z,45.08
2023-03-26T00:54:41.543Z,45.24
2023-03-26T00:59:45.209Z,44.98
2023-03-26T01:04:55.966Z,46.25
2023-03-26T01:10:00.814Z,47.52
2023-03-26T01:15:05.342Z,48.07
2023-03-26T01:20:16.508Z,50.30
2023-03-26T01:25:25.993Z,49.23
2023-03-26T01:30:39.637Z,51.81
2023-03-26T01:35:52.543Z,50.80
2023-03-26T01:41:05.074Z,50.39
2023-03-26T01:46:11.746Z,51.04
2023-03-26T01:51:26.255Z,51.08
2023-03-26T01:56:40.261Z,51.41
2023-03-26T02:01:49.130Z,51.24
2023-03-26T02:06:58.630Z,50.70
2023-03-26T02:12:05.658Z,53.08
2023-03-26T02:17:09.515Z,52.44
2023-03-26T02:22:13.806Z,53.91
2023-03-26T02:27:19.080Z,51.63
2023-03-26T02:32:23.632Z,53.60
2023-03-26T02:37:27.309Z,54.85
2023-03-26T02:42:32.618Z,56.76
2023-03-26T02:47:36.360Z,57.06
2023-03-26T02:52:40.086Z,57.41
2023-03-26T02:57:46.360Z,57.32
2023-03-26T03:02:49.305Z,58.19
2023-03-26T03:07:53.063Z,57.59
2023-03-26T03:12:58.370Z,57.60
2023-03-26T03:18:02.114Z,57.68
2023-03-26T03:23:05.818Z,56.54
2023-03-26T03:28:11.381Z,58.00
2023-03-26T03:33:15.016Z,56.31
2023-03-26T03:38:19.439Z,56.61
2023-03-26T03:43:24.896Z,55.20
2023-03-26T03:48:28.874Z,54.59
2023-03-26T03:53:32.643Z,55.27
2023-03-26T03:58:38.039Z,53.29
2023-03-26T04:03:41.912Z,53.32
2023-03-26T04:08:45.814Z,53.70
2023-03-26T04:13:51.097Z,54.34
2023-03-26T04:18:54.761Z,53.57
2023-03-26T04:23:58.421Z,54.68
2023-03-26T04:29:06.774Z,54.83
2023-03-26T04:34:14.802Z,52.67
2023-03-26T04:39:18.732Z,55.17
2023-03-26T04:44:25.398Z,52.43
2023-03-26T04:49:29.020Z,55.67
2023-03-26T04:54:32.676Z,54.37
2023-03-26T04:59:37.996Z,55.04
2023-03-26T05:04:41.852Z,53.92
2023-03-26T05:09:45.681Z,53.06
2023-03-26T05:14:50.987Z,52.72
2023-03-26T05:19:54.801Z,53.18
2023-03-26T05:24:58.413Z,54.68
2023-03-26T05:30:05.508Z,53.36
2023-03-26T05:35:09.828Z,53.56
2023-03-26T05:40:14.147Z,54.43
2023-03-26T05:45:19.573Z,52.82
2023-03-26T05:50:23.838Z,52.99
2023-03-26T05:55:27.480Z,53.26
2023-03-26T06:00:32.754Z,53.14
2023-03-26T06:05:36.671Z,53.73
2023-03-26T06:10:40.402Z,52.56
2023-03-26T06:15:45.842Z,52.78
2023-03-26T06:20:49.667Z,53.29
2023-03-26T06:25:53.328Z,53.45
2023-03-26T06:31:01.260Z,53.56
2023-03-26T06:36:05.460Z,53.92
2023-03-26T06:41:09.373Z,53.04
2023-03-26T06:46:14.719Z,53.81
2023-03-26T06:51:18.621Z,54.30
2023-03-26T06:56:22.402Z,55.90
2023-03-26T07:01:27.740Z,57.30
2023-03-26T07:06:31.407Z,57.75
2023-03-26T07:11:35.769Z,57.02
2023-03-26T07:16:41.136Z,57.24
2023-03-26T07:21:45.319Z,56.44
2023-03-26T07:26:57.336Z,56.63
2023-03-26T07:32:10.228Z,56.46
2023-03-26T07:37:24.315Z,56.87
2023-03-26T07:42:46.761Z,57.46
2023-03-26T07:47:52.606Z,58.23
2023-03-26T07:52:56.770Z,57.87
2023-03-26T07:58:14.822Z,59.27
2023-03-26T08:03:46.786Z,60.13
2023-03-26T08:08:54.777Z,59.45
2023-03-26T08:14:09.414Z,59.35
2023-03-26T08:19:34.982Z,58.96
2023-03-26T08:24:44.672Z,58.65
2023-03-26T08:29:55.427Z,58.64
2023-03-26T08:35:00.866Z,58.36
2023-03-26T08:40:04.655Z,57.88
2023-03-26T08:45:39.553Z,58.03
2023-03-26T08:51:22.699Z,58.13
2023-03-26T08:56:30.342Z,57.85
2023-03-26T09:02:06.452Z,58.31
2023-03-26T09:07:34.375Z,57.33
2023-03-26T09:13:17.745Z,57.50
2023-03-26T09:18:49.630Z,58.06
2023-03-26T09:24:21.629Z,57.64
2023-03-26T09:30:05.917Z,57.02
2023-03-26T09:35:18.142Z,57.04
2023-03-26T09:40:35.543Z,56.24
2023-03-26T09:51:47.076Z,55.64
2023-03-26T09:56:59.370Z,55.29
2023-03-26T10:02:46.314Z,54.33
2023-03-26T10:08:07.425Z,54.20
2023-03-26T10:13:24.475Z,53.61
2023-03-26T10:18:38.342Z,53.37
2023-03-26T10:24:02.449Z,53.54
2023-03-26T10:29:30.358Z,53.62
2023-03-26T10:34:50.414Z,54.00
2023-03-26T10:40:16.922Z,54.45
2023-03-26T10:45:39.681Z,55.04
2023-03-26T10:51:07.914Z,55.36
2023-03-26T10:56:22.833Z,55.09
2023-03-26T11:01:41.189Z,55.50
2023-03-26T11:06:52.112Z,55.66
2023-03-26T11:12:02.518Z,55.77
2023-03-26T11:17:41.445Z,55.90
2023-03-26T11:22:59.548Z,56.25
2023-03-26T11:28:16.340Z,56.60
2023-03-26T11:33:25.329Z,56.43
2023-03-26T11:38:35.073Z,56.25
2023-03-26T11:43:38.733Z,55.94
2023-03-26T11:48:47.672Z,56.35
2023-03-26T11:53:51.432Z,56.13
2023-03-26T11:59:02.308Z,55.59
2023-03-26T12:04:12.267Z,55.35
2023-03-26T12:09:19.396Z,55.32
2023-03-26T12:14:25.424Z,55.12
2023-03-26T12:19:37.697Z,54.60
2023-03-26T12:24:41.317Z,54.32
2023-03-26T12:29:44.968Z,53.94
2023-03-26T12:34:51.327Z,53.29
2023-03-26T12:40:10.313Z,52.38
2023-03-26T12:45:15.793Z,53.30
2023-03-26T12:50:34.258Z,52.52
2023-03-26T12:55:43.943Z,52.27
2023-03-26T13:00:57.309Z,52.38
2023-03-26T13:06:24.710Z,52.16
2023-03-26T13:11:35.352Z,52.62
2023-03-26T13:16:47.194Z,51.74
2023-03-26T13:22:05.161Z,51.53
2023-03-26T13:27:31.776Z,52.70
2023-03-26T13:32:46.960Z,51.54
2023-03-26T13:37:59.451Z,50.61
2023-03-26T13:43:23.191Z,51.55
2023-03-26T13:48:31.055Z,51.63
2023-03-26T13:53:47.976Z,51.65
2023-03-26T13:58:56.994Z,53.44
2023-03-26T14:04:08.788Z,54.46
2023-03-26T14:09:19.764Z,53.85
2023-03-26T14:14:33.362Z,56.53
2023-03-26T14:20:11.145Z,58.00
2023-03-26T14:25:40.321Z,53.89
2023-03-26T14:30:55.144Z,56.86
2023-03-26T14:36:05.374Z,53.17
2023-03-26T14:41:23.985Z,51.63
2023-03-26T14:46:47.007Z,50.26
2023-03-26T14:52:02.228Z,49.23
2023-03-26T14:57:42.790Z,49.15
2023-03-26T15:03:17.982Z,47.35
2023-03-26T15:09:07.320Z,47.18
2023-03-26T15:14:42.475Z,46.67
2023-03-26T15:20:32.508Z,45.06
2023-03-26T15:26:12.975Z,43.87
2023-03-26T15:31:54.283Z,42.89
2023-03-26T15:37:36.315Z,41.44
2023-03-26T15:42:54.062Z,39.88
2023-03-26T15:48:32.266Z,40.83
2023-03-26T15:53:44.442Z,40.83
2023-03-26T15:58:56.321Z,39.80
2023-03-26T16:04:13.916Z,38.74
2023-03-26T16:09:49.225Z,37.49
2023-03-26T16:15:24.256Z,37.15
2023-03-26T16:20:33.687Z,39.02
2023-03-26T16:25:55.170Z,34.10
2023-03-26T16:31:37.280Z,34.04
2023-03-26T16:36:46.897Z,33.48
2023-03-26T16:42:06.153Z,33.59
2023-03-26T16:47:20.519Z,33.32
2023-03-26T16:52:36.277Z,31.77
2023-03-26T16:57:48.749Z,32.59
2023-03-26T17:02:58.201Z,32.60
2023-03-26T17:08:13.694Z,32.18
2023-03-26T17:13:23.694Z,32.00
2023-03-26T17:18:36.497Z,29.65
2023-03-26T17:24:02.535Z,28.86
2023-03-26T17:29:23.229Z,28.96
2023-03-26T17:34:59.853Z,30.02
2023-03-26T17:40:51.486Z,26.79
2023-03-26T17:46:03.385Z,29.11
2023-03-26T17:51:29.041Z,29.09
2023-03-26T17:56:36.796Z,27.92
2023-03-26T18:01:42.956Z,27.87
2023-03-26T18:06:57.173Z,26.99
2023-03-26T18:12:39.285Z,27.84
2023-03-26T18:18:07.242Z,27.83
2023-03-26T18:23:17.899Z,28.21
2023-03-26T18:28:32.060Z,31.96
2023-03-26T18:33:43.244Z,30.85
2023-03-26T18:38:47.182Z,31.11
2023-03-26T18:43:52.591Z,32.17
2023-03-26T18:48:56.395Z,33.38
2023-03-26T18:54:03.907Z,32.13
2023-03-26T18:59:25.684Z,31.80
2023-03-26T19:04:31.261Z,31.27
2023-03-26T19:09:35.417Z,31.51
2023-03-26T19:14:55.995Z,30.24
2023-03-26T19:19:59.714Z,29.47
2023-03-26T19:25:06.507Z,30.16
2023-03-26T19:30:25.780Z,29.23
2023-03-26T19:35:36.798Z,31.81
2023-03-26T19:40:43.580Z,30.75
2023-03-26T19:46:04.953Z,31.43
2023-03-26T19:51:21.133Z,28.81
2023-03-26T19:56:24.049Z,29.10
2023-03-26T20:01:31.129Z,29.25
2023-03-26T20:06:43.309Z,29.07
2023-03-26T20:11:47.619Z,29.59
2023-03-26T20:16:53.201Z,27.15
2023-03-26T20:21:57.256Z,27.84
2023-03-26T20:27:00.900Z,28.10
2023-03-26T20:32:07.738Z,31.27
2023-03-26T20:37:11.422Z,30.63
2023-03-26T20:42:17.659Z,31.13
2023-03-26T20:47:23.957Z,31.72
2023-03-26T20:52:27.674Z,32.89
2023-03-26T20:57:31.307Z,32.36
2023-03-26T21:02:36.699Z,32.83
2023-03-26T21:07:40.809Z,30.92
2023-03-26T21:12:49.660Z,32.43
2023-03-26T21:17:55.873Z,33.22
2023-03-26T21:23:08.640Z,32.44
2023-03-26T21:28:32.009Z,31.93
2023-03-26T21:33:45.455Z,34.19
2023-03-26T21:38:49.624Z,33.43
2023-03-26T21:43:53.319Z,35.76
2023-03-26T21:48:59.206Z,32.34
2023-03-26T21:54:02.339Z,31.11
2023-03-26T21:59:18.791Z,34.50
2023-03-26T22:04:34.182Z,34.45
2023-03-26T22:09:38.369Z,36.30
2023-03-26T22:14:42.086Z,34.57
2023-03-26T22:19:47.403Z,34.62
2023-03-26T22:24:51.005Z,34.56
2023-03-26T22:29:54.647Z,35.02
2023-03-26T22:34:59.969Z,35.18
2023-03-26T22:40:03.738Z,36.07
2023-03-26T22:45:08.776Z,35.95
2023-03-26T22:50:14.216Z,36.26
2023-03-26T22:55:29.081Z,35.61
2023-03-26T23:00:33.610Z,35.82
2023-03-26T23:05:39.168Z,37.61
2023-03-26T23:10:43.284Z,36.50
2023-03-26T23:15:48.744Z,36.68
2023-03-26T23:20:55.143Z,36.50
2023-03-26T23:25:59.985Z,37.48
2023-03-26T23:31:05.470Z,38.24
2023-03-26T23:36:11.536Z,38.37
2023-03-26T23:41:15.710Z,38.55
2023-03-26T23:46:19.402Z,38.38
2023-03-26T23:51:24.701Z,38.08
2023-03-26T23:56:28.365Z,38.49
